createdAt,value
2023-05-12T00:01:44.045Z,100.00
2023-05-12T00:04:10.585Z,100.00
2023-05-12T00:06:37.184Z,100.00
2023-05-12T00:09:03.962Z,100.00
2023-05-12T00:11:30.416Z,100.00
2023-05-12T00:13:56.988Z,100.00
2023-05-12T00:16:23.452Z,100.00
2023-05-12T00:18:49.920Z,100.00
2023-05-12T00:21:16.529Z,100.00
2023-05-12T00:23:43.079Z,100.00
2023-05-12T00:26:09.589Z,100.00
2023-05-12T00:28:35.961Z,100.00
2023-05-12T00:31:02.694Z,100.00
2023-05-12T00:33:29.368Z,100.00
2023-05-12T00:35:55.881Z,100.00
2023-05-12T00:38:22.280Z,100.00
2023-05-12T00:40:48.681Z,100.00
2023-05-12T00:43:15.158Z,100.00
2023-05-12T00:45:41.781Z,100.00
2023-05-12T00:48:08.220Z,100.00
2023-05-12T00:50:34.839Z,100.00
2023-05-12T00:53:01.381Z,100.00
2023-05-12T00:55:29.138Z,100.00
2023-05-12T00:57:55.794Z,100.00
2023-05-12T01:00:22.568Z,100.00
2023-05-12T01:02:49.222Z,100.00
2023-05-12T01:05:15.900Z,100.00
2023-05-12T01:07:42.433Z,100.00
2023-05-12T01:10:16.947Z,100.00
2023-05-12T01:12:43.429Z,100.00
2023-05-12T01:15:10.180Z,100.00
2023-05-12T01:17:36.657Z,100.00
2023-05-12T01:20:03.400Z,100.00
2023-05-12T01:22:29.862Z,100.00
2023-05-12T01:24:59.906Z,100.00
2023-05-12T01:27:26.560Z,100.00
2023-05-12T01:29:53.216Z,100.00
2023-05-12T01:32:19.797Z,100.00
2023-05-12T01:34:46.222Z,100.00
2023-05-12T01:37:12.990Z,100.00
2023-05-12T01:39:39.474Z,100.00
2023-05-12T01:42:06.191Z,100.00
2023-05-12T01:44:32.647Z,100.00
2023-05-12T01:46:59.316Z,100.00
2023-05-12T01:49:25.833Z,100.00
2023-05-12T01:51:52.276Z,100.00
2023-05-12T01:54:18.756Z,100.00
2023-05-12T01:56:45.202Z,100.00
2023-05-12T01:59:11.708Z,100.00
2023-05-12T02:01:38.283Z,100.00
2023-05-12T02:04:04.926Z,100.00
2023-05-12T02:06:31.524Z,100.00
2023-05-12T02:08:57.987Z,100.00
2023-05-12T02:11:24.476Z,100.00
2023-05-12T02:13:53.073Z,100.00
2023-05-12T02:16:19.533Z,100.00
2023-05-12T02:18:45.948Z,100.00
2023-05-12T02:21:12.442Z,100.00
2023-05-12T02:23:39.006Z,100.00
2023-05-12T02:26:05.492Z,100.00
2023-05-12T02:28:31.930Z,100.00
2023-05-12T02:30:58.355Z,100.00
2023-05-12T02:33:24.847Z,100.00
2023-05-12T02:35:51.357Z,100.00
2023-05-12T02:38:17.932Z,100.00
2023-05-12T02:40:44.401Z,100.00
2023-05-12T02:43:10.938Z,100.00
2023-05-12T02:45:37.615Z,100.00
2023-05-12T02:48:04.317Z,100.00
2023-05-12T02:50:30.902Z,100.00
2023-05-12T02:52:57.427Z,100.00
2023-05-12T02:55:23.855Z,100.00
2023-05-12T02:57:50.296Z,100.00
2023-05-12T03:00:16.836Z,100.00
2023-05-12T03:02:43.441Z,100.00
2023-05-12T03:05:10.070Z,100.00
2023-05-12T03:07:36.469Z,100.00
2023-05-12T03:10:02.948Z,100.00
2023-05-12T03:12:29.484Z,100.00
2023-05-12T03:14:55.962Z,100.00
2023-05-12T03:17:22.475Z,100.00
2023-05-12T03:19:48.919Z,100.00
2023-05-12T03:22:15.457Z,100.00
2023-05-12T03:24:42.015Z,100.00
2023-05-12T03:27:08.483Z,100.00
2023-05-12T03:29:34.928Z,100.00
2023-05-12T03:32:01.566Z,100.00
2023-05-12T03:34:28.017Z,100.00
2023-05-12T03:36:54.473Z,100.00
2023-05-12T03:39:20.914Z,100.00
2023-05-12T03:41:47.586Z,100.00
2023-05-12T03:44:14.000Z,100.00
2023-05-12T03:46:40.531Z,100.00
2023-05-12T03:49:06.988Z,100.00
2023-05-12T03:51:33.417Z,100.00
2023-05-12T03:53:59.811Z,100.00
2023-05-12T03:56:26.283Z,100.00
2023-05-12T03:58:52.726Z,100.00
2023-05-12T04:01:19.097Z,100.00
2023-05-12T04:03:45.751Z,100.00
2023-05-12T04:06:12.278Z,100.00
2023-05-12T04:08:41.685Z,100.00
2023-05-12T04:11:08.433Z,100.00
2023-05-12T04:13:34.923Z,100.00
2023-05-12T04:16:01.420Z,100.00
2023-05-12T04:18:29.004Z,100.00
2023-05-12T04:20:55.579Z,100.00
2023-05-12T04:23:23.030Z,100.00
2023-05-12T04:25:49.623Z,100.00
2023-05-12T04:28:16.172Z,100.00
2023-05-12T04:30:42.688Z,100.00
2023-05-12T04:33:09.285Z,100.00
2023-05-12T04:35:35.941Z,100.00
2023-05-12T04:38:02.372Z,100.00
2023-05-12T04:40:28.908Z,100.00
2023-05-12T04:42:55.297Z,100.00
2023-05-12T04:45:22.103Z,100.00
2023-05-12T04:47:48.735Z,100.00
2023-05-12T04:50:15.199Z,100.00
2023-05-12T04:52:41.833Z,100.00
2023-05-12T04:55:08.511Z,100.00
2023-05-12T04:57:35.015Z,100.00
2023-05-12T05:00:01.548Z,100.00
2023-05-12T05:02:28.042Z,100.00
2023-05-12T05:04:54.639Z,100.00
2023-05-12T05:07:21.144Z,100.00
2023-05-12T05:09:47.523Z,100.00
2023-05-12T05:12:13.977Z,100.00
2023-05-12T05:14:40.496Z,100.00
2023-05-12T05:17:06.910Z,100.00
2023-05-12T05:19:46.158Z,100.00
2023-05-12T05:22:19.978Z,100.00
2023-05-12T05:24:46.580Z,100.00
2023-05-12T05:27:13.072Z,100.00
2023-05-12T05:29:39.648Z,100.00
2023-05-12T05:32:06.216Z,100.00
2023-05-12T05:34:32.937Z,100.00
2023-05-12T05:36:59.532Z,100.00
2023-05-12T05:39:25.954Z,100.00
2023-05-12T05:41:52.309Z,100.00
2023-05-12T05:44:18.812Z,100.00
2023-05-12T05:46:45.214Z,100.00
2023-05-12T05:49:11.646Z,100.00
2023-05-12T05:51:38.157Z,100.00
2023-05-12T05:54:04.810Z,100.00
2023-05-12T05:56:31.244Z,100.00
2023-05-12T05:58:57.728Z,100.00
2023-05-12T06:01:24.126Z,100.00
2023-05-12T06:03:50.547Z,100.00
2023-05-12T06:06:17.072Z,100.00
2023-05-12T06:08:43.653Z,100.00
2023-05-12T06:11:10.347Z,100.00
2023-05-12T06:13:36.825Z,100.00
2023-05-12T06:16:03.303Z,100.00
2023-05-12T06:18:29.724Z,100.00
2023-05-12T06:20:56.238Z,100.00
2023-05-12T06:23:22.654Z,100.00
2023-05-12T06:25:49.278Z,100.00
2023-05-12T06:28:15.780Z,100.00
2023-05-12T06:30:42.265Z,100.00
2023-05-12T06:33:08.883Z,100.00
2023-05-12T06:35:35.497Z,100.00
2023-05-12T06:38:01.906Z,100.00
2023-05-12T06:40:28.331Z,100.00
2023-05-12T06:42:54.833Z,100.00
2023-05-12T06:45:21.677Z,100.00
2023-05-12T06:47:48.334Z,100.00
2023-05-12T06:50:14.789Z,100.00
2023-05-12T06:52:41.190Z,100.00
2023-05-12T06:55:07.778Z,100.00
2023-05-12T06:57:34.266Z,100.00
2023-05-12T07:00:00.658Z,100.00
2023-05-12T07:02:27.343Z,100.00
2023-05-12T07:04:53.878Z,100.00
2023-05-12T07:07:20.336Z,100.00
2023-05-12T07:09:46.786Z,100.00
2023-05-12T07:12:13.321Z,100.00
2023-05-12T07:14:39.763Z,100.00
2023-05-12T07:17:06.232Z,100.00
2023-05-12T07:19:32.748Z,100.00
2023-05-12T07:21:59.397Z,100.00
2023-05-12T07:24:25.858Z,100.00
2023-05-12T07:26:52.337Z,100.00
2023-05-12T07:29:18.749Z,100.00
2023-05-12T07:31:45.179Z,100.00
2023-05-12T07:34:11.857Z,100.00
2023-05-12T07:36:38.341Z,100.00
2023-05-12T07:39:04.848Z,100.00
2023-05-12T07:41:32.538Z,100.00
2023-05-12T07:44:01.147Z,100.00
2023-05-12T07:46:27.660Z,100.00
2023-05-12T07:48:54.161Z,100.00
2023-05-12T07:51:20.567Z,100.00
2023-05-12T07:53:46.989Z,100.00
2023-05-12T07:56:13.456Z,100.00
2023-05-12T07:58:39.883Z,100.00
2023-05-12T08:01:06.300Z,100.00
2023-05-12T08:03:33.251Z,100.00
2023-05-12T08:05:59.949Z,100.00
2023-05-12T08:08:26.414Z,100.00
2023-05-12T08:10:52.882Z,100.00
2023-05-12T08:13:19.531Z,100.00
2023-05-12T08:15:45.899Z,100.00
2023-05-12T08:18:12.433Z,100.00
2023-05-12T08:20:38.986Z,100.00
2023-05-12T08:23:05.471Z,100.00
2023-05-12T08:25:31.989Z,100.00
2023-05-12T08:27:58.421Z,100.00
2023-05-12T08:30:24.875Z,100.00
2023-05-12T08:32:51.523Z,100.00
2023-05-12T08:35:18.070Z,100.00
2023-05-12T08:37:44.597Z,100.00
2023-05-12T08:40:31.355Z,100.00
2023-05-12T08:43:13.399Z,100.00
2023-05-12T08:45:40.177Z,100.00
2023-05-12T08:48:08.842Z,100.00
2023-05-12T08:50:38.563Z,100.00
2023-05-12T08:53:05.195Z,100.00
2023-05-12T08:55:33.801Z,100.00
2023-05-12T08:58:00.942Z,100.00
2023-05-12T09:00:27.419Z,100.00
2023-05-12T09:02:54.890Z,100.00
2023-05-12T09:05:22.187Z,100.00
2023-05-12T09:07:49.179Z,100.00
2023-05-12T09:10:26.356Z,100.00
2023-05-12T09:13:02.717Z,100.00
2023-05-12T09:15:32.199Z,100.00
2023-05-12T09:17:58.656Z,100.00
2023-05-12T09:20:31.973Z,100.00
2023-05-12T09:22:58.704Z,100.00
2023-05-12T09:25:25.137Z,100.00
2023-05-12T09:27:54.254Z,100.00
2023-05-12T09:30:28.957Z,100.00
2023-05-12T09:33:04.915Z,100.00
2023-05-12T09:35:31.286Z,100.00
2023-05-12T09:37:57.878Z,99.80
2023-05-12T09:40:24.353Z,99.44
2023-05-12T09:42:50.741Z,99.95
2023-05-12T09:45:17.130Z,100.00
2023-05-12T09:47:43.639Z,100.00
2023-05-12T09:50:10.350Z,100.00
2023-05-12T09:52:37.979Z,100.00
2023-05-12T09:55:08.149Z,100.00
2023-05-12T09:57:35.872Z,100.00
2023-05-12T10:00:03.944Z,100.00
2023-05-12T10:02:31.554Z,100.00
2023-05-12T10:04:58.304Z,100.00
2023-05-12T10:07:24.654Z,100.00
2023-05-12T10:09:51.162Z,100.00
2023-05-12T10:12:17.635Z,100.00
2023-05-12T10:14:44.105Z,100.00
2023-05-12T10:17:10.635Z,100.00
2023-05-12T10:19:37.072Z,100.00
2023-05-12T10:22:03.428Z,100.00
2023-05-12T10:24:29.851Z,99.98
2023-05-12T10:26:56.265Z,100.00
2023-05-12T10:29:23.162Z,100.00
2023-05-12T10:31:49.633Z,100.00
2023-05-12T10:34:16.739Z,100.00
2023-05-12T10:36:43.807Z,100.00
2023-05-12T10:39:12.789Z,100.00
2023-05-12T10:41:39.364Z,100.00
2023-05-12T10:44:05.845Z,100.00
2023-05-12T10:46:32.477Z,98.10
2023-05-12T10:49:02.668Z,97.66
2023-05-12T10:51:29.792Z,98.51
2023-05-12T10:53:57.092Z,96.20
2023-05-12T10:56:24.875Z,97.29
2023-05-12T10:59:07.892Z,97.88
2023-05-12T11:01:35.777Z,98.20
2023-05-12T11:04:13.159Z,97.68
2023-05-12T11:06:40.957Z,97.49
2023-05-12T11:09:09.031Z,96.81
2023-05-12T11:11:36.310Z,97.81
2023-05-12T11:14:02.910Z,97.32
2023-05-12T11:16:29.401Z,97.38
2023-05-12T11:19:05.411Z,95.52
2023-05-12T11:21:32.194Z,95.62
2023-05-12T11:23:59.025Z,96.24
2023-05-12T11:26:25.817Z,96.40
2023-05-12T11:28:52.243Z,94.52
2023-05-12T11:31:19.095Z,93.61
2023-05-12T11:33:45.625Z,94.89
2023-05-12T11:36:12.076Z,93.62
2023-05-12T11:38:38.474Z,93.62
2023-05-12T11:41:04.979Z,93.75
2023-05-12T11:43:31.383Z,94.80
2023-05-12T11:45:57.901Z,93.82
2023-05-12T11:48:32.057Z,94.81
2023-05-12T11:50:58.470Z,94.42
2023-05-12T11:53:25.561Z,93.22
2023-05-12T11:55:56.374Z,93.51
2023-05-12T11:58:23.518Z,93.82
2023-05-12T12:00:50.038Z,95.28
2023-05-12T12:03:16.943Z,95.42
2023-05-12T12:05:44.146Z,95.12
2023-05-12T12:08:14.891Z,94.56
2023-05-12T12:10:44.605Z,96.17
2023-05-12T12:13:11.228Z,96.62
2023-05-12T12:15:37.735Z,96.80
2023-05-12T12:18:04.390Z,97.21
2023-05-12T12:20:30.872Z,96.01
2023-05-12T12:22:57.257Z,95.67
2023-05-12T12:25:23.756Z,95.97
2023-05-12T12:27:50.265Z,96.66
2023-05-12T12:30:16.714Z,96.58
2023-05-12T12:32:43.380Z,97.08
2023-05-12T12:35:09.879Z,96.08
2023-05-12T12:37:36.256Z,96.19
2023-05-12T12:40:02.901Z,94.77
2023-05-12T12:42:29.482Z,94.97
2023-05-12T12:44:55.889Z,94.46
2023-05-12T12:47:22.379Z,95.63
2023-05-12T12:49:48.827Z,94.48
2023-05-12T12:52:15.299Z,94.86
2023-05-12T12:54:41.998Z,95.07
2023-05-12T12:57:08.387Z,95.55
2023-05-12T12:59:34.812Z,95.70
2023-05-12T13:02:01.432Z,95.32
2023-05-12T13:04:27.974Z,95.41
2023-05-12T13:06:54.365Z,95.71
2023-05-12T13:09:20.922Z,95.29
2023-05-12T13:11:47.568Z,94.30
2023-05-12T13:14:13.967Z,93.29
2023-05-12T13:16:40.456Z,94.07
2023-05-12T13:19:07.118Z,93.58
2023-05-12T13:21:33.756Z,94.57
2023-05-12T13:24:00.257Z,95.03
2023-05-12T13:26:26.708Z,92.94
2023-05-12T13:28:53.155Z,91.63
2023-05-12T13:31:19.692Z,91.79
2023-05-12T13:33:46.122Z,92.33
2023-05-12T13:36:12.668Z,88.79
2023-05-12T13:38:39.621Z,89.81
2023-05-12T13:41:06.243Z,90.37
2023-05-12T13:43:32.699Z,88.17
2023-05-12T13:45:59.262Z,89.27
2023-05-12T13:48:25.785Z,89.40
2023-05-12T13:50:52.255Z,90.24
2023-05-12T13:53:18.716Z,90.20
2023-05-12T13:55:45.143Z,90.41
2023-05-12T13:58:11.587Z,88.50
2023-05-12T14:00:38.048Z,87.74
2023-05-12T14:03:04.625Z,88.90
2023-05-12T14:05:31.269Z,88.52
2023-05-12T14:07:57.906Z,88.56
2023-05-12T14:10:24.370Z,88.49
2023-05-12T14:12:50.931Z,89.00
2023-05-12T14:17:47.336Z,89.04
2023-05-12T14:20:13.775Z,88.79
2023-05-12T14:22:40.352Z,88.49
2023-05-12T14:25:06.904Z,89.39
2023-05-12T14:27:33.268Z,89.23
2023-05-12T14:30:00.037Z,88.91
2023-05-12T14:32:26.603Z,88.79
2023-05-12T14:34:53.009Z,90.50
2023-05-12T14:37:19.491Z,90.86
2023-05-12T14:39:45.955Z,89.99
2023-05-12T14:42:12.466Z,90.03
2023-05-12T14:44:38.889Z,90.23
2023-05-12T14:47:07.454Z,90.39
2023-05-12T14:49:35.266Z,90.81
2023-05-12T14:52:01.722Z,89.80
2023-05-12T14:54:28.170Z,90.54
2023-05-12T14:56:54.584Z,90.91
2023-05-12T14:59:21.070Z,90.34
2023-05-12T15:01:47.650Z,90.60
2023-05-12T15:04:14.307Z,90.83
2023-05-12T15:06:40.795Z,91.47
2023-05-12T15:09:07.266Z,90.84
2023-05-12T15:11:33.843Z,90.63
2023-05-12T15:14:00.404Z,91.70
2023-05-12T15:16:26.912Z,90.14
2023-05-12T15:18:53.428Z,89.37
2023-05-12T15:21:20.139Z,89.61
2023-05-12T15:23:46.577Z,90.29
2023-05-12T15:26:26.889Z,89.20
2023-05-12T15:28:59.309Z,90.31
2023-05-12T15:31:25.856Z,90.99
2023-05-12T15:33:52.267Z,91.37
2023-05-12T15:36:18.765Z,89.54
2023-05-12T15:38:45.174Z,88.36
2023-05-12T15:41:11.629Z,88.26
2023-05-12T15:43:38.245Z,90.32
2023-05-12T15:46:05.021Z,89.05
2023-05-12T15:48:31.469Z,87.82
2023-05-12T15:50:57.968Z,87.63
2023-05-12T15:53:24.425Z,89.78
2023-05-12T15:55:58.633Z,91.27
2023-05-12T15:58:25.054Z,92.05
2023-05-12T16:00:53.196Z,92.78
2023-05-12T16:03:19.855Z,93.02
2023-05-12T16:05:46.325Z,94.66
2023-05-12T16:08:12.849Z,96.60
2023-05-12T16:10:39.422Z,95.47
2023-05-12T16:13:05.900Z,96.22
2023-05-12T16:15:32.358Z,95.93
2023-05-12T16:17:58.839Z,97.11
2023-05-12T16:20:25.320Z,96.58
2023-05-12T16:22:51.957Z,94.78
2023-05-12T16:25:18.588Z,95.11
2023-05-12T16:27:45.360Z,94.12
2023-05-12T16:30:11.928Z,92.07
2023-05-12T16:32:38.676Z,93.76
2023-05-12T16:35:05.689Z,90.40
2023-05-12T16:37:32.166Z,89.01
2023-05-12T16:39:58.779Z,88.84
2023-05-12T16:42:25.298Z,87.73
2023-05-12T16:44:54.712Z,88.74
2023-05-12T16:47:21.251Z,88.36
2023-05-12T16:49:47.783Z,89.05
2023-05-12T16:52:14.256Z,88.52
2023-05-12T16:54:40.833Z,88.85
2023-05-12T16:57:07.275Z,89.41
2023-05-12T16:59:33.748Z,87.52
2023-05-12T17:02:00.538Z,87.13
2023-05-12T17:04:27.074Z,87.50
2023-05-12T17:06:53.516Z,89.33
2023-05-12T17:09:20.236Z,88.60
2023-05-12T17:11:46.631Z,89.50
2023-05-12T17:14:13.041Z,89.17
2023-05-12T17:16:39.714Z,88.89
2023-05-12T17:21:35.616Z,88.82
2023-05-12T17:24:02.128Z,89.81
2023-05-12T17:26:28.526Z,89.21
2023-05-12T17:28:55.132Z,90.94
2023-05-12T17:31:21.765Z,90.44
2023-05-12T17:33:48.287Z,90.22
2023-05-12T17:36:14.794Z,88.16
2023-05-12T17:38:41.336Z,87.48
2023-05-12T17:41:07.974Z,87.78
2023-05-12T17:43:34.393Z,87.26
2023-05-12T17:46:00.827Z,87.57
2023-05-12T17:48:27.268Z,88.05
2023-05-12T17:50:53.749Z,88.47
2023-05-12T17:53:20.251Z,89.51
2023-05-12T17:55:46.694Z,88.37
2023-05-12T17:58:13.148Z,89.17
2023-05-12T18:00:39.618Z,89.92
2023-05-12T18:03:06.184Z,90.83
2023-05-12T18:05:33.845Z,90.57
2023-05-12T18:08:01.411Z,90.57
2023-05-12T18:10:27.826Z,91.82
2023-05-12T18:12:55.536Z,91.14
2023-05-12T18:15:22.436Z,90.97
2023-05-12T18:17:48.986Z,92.41
2023-05-12T18:20:15.499Z,92.33
2023-05-12T18:22:42.096Z,93.56
2023-05-12T18:25:08.781Z,94.08
2023-05-12T18:27:35.299Z,94.31
2023-05-12T18:30:01.863Z,94.60
2023-05-12T18:32:28.583Z,96.15
2023-05-12T18:34:55.111Z,95.60
2023-05-12T18:37:21.930Z,95.00
2023-05-12T18:39:48.302Z,94.52
2023-05-12T18:42:14.827Z,94.51
2023-05-12T18:44:41.393Z,93.86
2023-05-12T18:47:08.109Z,92.64
2023-05-12T18:49:34.865Z,91.32
2023-05-12T18:52:01.348Z,92.01
2023-05-12T18:54:27.778Z,92.46
2023-05-12T18:56:54.224Z,93.04
2023-05-12T18:59:20.735Z,94.05
2023-05-12T19:01:47.271Z,93.58
2023-05-12T19:04:14.129Z,93.68
2023-05-12T19:06:40.598Z,94.57
2023-05-12T19:09:07.055Z,94.16
2023-05-12T19:11:33.498Z,93.28
2023-05-12T19:13:59.923Z,94.66
2023-05-12T19:16:26.348Z,93.91
2023-05-12T19:18:52.870Z,94.53
2023-05-12T19:21:19.547Z,92.50
2023-05-12T19:23:45.964Z,92.52
2023-05-12T19:26:12.481Z,93.27
2023-05-12T19:28:38.946Z,91.74
2023-05-12T19:31:05.400Z,91.58
2023-05-12T19:33:31.877Z,90.82
2023-05-12T19:35:58.432Z,90.85
2023-05-12T19:38:25.027Z,91.49
2023-05-12T19:40:51.521Z,90.67
2023-05-12T19:43:18.089Z,92.01
2023-05-12T19:45:44.575Z,90.91
2023-05-12T19:48:11.407Z,90.65
2023-05-12T19:50:37.951Z,90.61
2023-05-12T19:53:04.430Z,91.29
2023-05-12T19:55:30.898Z,91.97
2023-05-12T19:57:57.374Z,92.46
2023-05-12T20:00:23.809Z,92.46
2023-05-12T20:02:50.450Z,94.04
2023-05-12T20:05:17.117Z,94.48
2023-05-12T20:07:43.531Z,94.30
2023-05-12T20:10:10.042Z,94.39
2023-05-12T20:12:36.685Z,93.52
2023-05-12T20:15:03.328Z,94.48
2023-05-12T20:17:29.912Z,95.53
2023-05-12T20:19:56.462Z,95.54
2023-05-12T20:22:22.921Z,96.22
2023-05-12T20:24:49.462Z,95.35
2023-05-12T20:27:15.980Z,96.73
2023-05-12T20:29:42.477Z,97.13
2023-05-12T20:32:08.965Z,97.47
2023-05-12T20:34:35.453Z,96.29
2023-05-12T20:37:01.873Z,97.52
2023-05-12T20:39:28.339Z,97.83
2023-05-12T20:41:54.823Z,98.60
2023-05-12T20:44:21.230Z,98.27
2023-05-12T20:46:47.757Z,98.82
2023-05-12T20:49:14.230Z,97.74
2023-05-12T20:51:40.600Z,98.08
2023-05-12T20:54:06.993Z,98.01
2023-05-12T20:56:33.526Z,98.34
2023-05-12T20:58:59.928Z,99.71
2023-05-12T21:01:26.484Z,100.00
2023-05-12T21:03:53.053Z,99.86
2023-05-12T21:06:19.524Z,99.57
2023-05-12T21:08:45.877Z,99.20
2023-05-12T21:11:12.937Z,99.33
2023-05-12T21:13:39.403Z,99.36
2023-05-12T21:16:05.888Z,99.38
2023-05-12T21:18:32.524Z,99.45
2023-05-12T21:20:59.047Z,100.00
2023-05-12T21:23:25.515Z,100.00
2023-05-12T21:25:54.931Z,99.42
2023-05-12T21:28:21.464Z,99.69
2023-05-12T21:30:47.888Z,99.20
2023-05-12T21:33:14.329Z,99.95
2023-05-12T21:35:40.705Z,100.00
2023-05-12T21:38:07.107Z,100.00
2023-05-12T21:40:33.682Z,100.00
2023-05-12T21:43:00.227Z,99.96
2023-05-12T21:45:26.655Z,100.00
2023-05-12T21:47:53.239Z,100.00
2023-05-12T21:50:20.121Z,100.00
2023-05-12T21:52:47.059Z,100.00
2023-05-12T21:55:13.687Z,100.00
2023-05-12T21:57:40.302Z,100.00
2023-05-12T22:00:07.024Z,100.00
2023-05-12T22:02:33.775Z,100.00
2023-05-12T22:05:00.331Z,100.00
2023-05-12T22:07:26.860Z,100.00
2023-05-12T22:09:53.370Z,100.00
2023-05-12T22:12:19.747Z,100.00
2023-05-12T22:14:46.176Z,100.00
2023-05-12T22:17:12.752Z,100.00
2023-05-12T22:19:39.264Z,99.61
2023-05-12T22:22:05.937Z,100.00
2023-05-12T22:24:32.499Z,100.00
2023-05-12T22:26:58.982Z,100.00
2023-05-12T22:29:25.500Z,100.00
2023-05-12T22:31:51.938Z,100.00
2023-05-12T22:34:18.348Z,100.00
2023-05-12T22:36:45.109Z,100.00
2023-05-12T22:39:11.610Z,100.00
2023-05-12T22:41:38.024Z,99.82
2023-05-12T22:44:04.804Z,100.00
2023-05-12T22:46:31.414Z,100.00
2023-05-12T22:48:57.918Z,100.00
2023-05-12T22:51:24.358Z,100.00
2023-05-12T22:53:50.859Z,100.00
2023-05-12T22:56:17.244Z,100.00
2023-05-12T22:58:43.715Z,100.00
2023-05-12T23:01:10.370Z,100.00
2023-05-12T23:03:36.999Z,100.00
2023-05-12T23:06:03.442Z,100.00
2023-05-12T23:08:30.016Z,100.00
2023-05-12T23:10:56.535Z,100.00
2023-05-12T23:13:22.987Z,100.00
2023-05-12T23:15:49.501Z,100.00
2023-05-12T23:18:15.882Z,100.00
2023-05-12T23:20:42.282Z,100.00
2023-05-12T23:23:08.785Z,100.00
2023-05-12T23:25:35.201Z,100.00
2023-05-12T23:28:01.583Z,100.00
2023-05-12T23:30:28.038Z,100.00
2023-05-12T23:32:54.580Z,100.00
2023-05-12T23:35:21.116Z,99.91
2023-05-12T23:37:47.677Z,100.00
2023-05-12T23:40:14.062Z,100.00
2023-05-12T23:42:40.495Z,100.00
2023-05-12T23:45:07.176Z,100.00
2023-05-12T23:47:33.652Z,100.00
2023-05-12T23:50:00.228Z,100.00
2023-05-12T23:52:26.689Z,100.00
2023-05-12T23:54:53.100Z,100.00
2023-05-12T23:57:19.614Z,100.00
2023-05-12T23:59:46.196Z,100.00
